Airfield :
LOGIN :

Register | Disclaimer

   EN    FR    IT 

 










Legend :    VFR   Marginal VFR   IFR   Intensive IFR   Very Intensive IFR
Visi :
Ceiling :
>= 8 km
>= 3000ft
5 to 8 km
1000 to 3000 ft
1500m to 5 km
500 to 1000 ft
800 to 1500m
200 to 500 ft
< 800m
< 200 ft
Symbols :   Thunderstorms  Fog  Heavy snow  Heavy precipitations  Wind > 20 kt
SIGMETs :     Misc.  Thunderstorms  Icing  Turbulence  Mountain Waves  Volcanic Ashes







- Airport Elevation : 517 ft
- IATA code : GML


UKKM - Antonov

CURRENT METAR :
  • 241200Z AUTO 04002MPS 9999 // NCD 27/05 Q1025

EXPIRED METARs :
  • 241130Z AUTO 07003MPS 010V130 9999 // NCD 26/07 Q1025
  • 241100Z AUTO 01003MPS 280V060 9999 // NCD 26/07 Q1025
  • 241030Z AUTO 05003MPS 9999 // NCD 25/07 Q1026
  • 241000Z AUTO 02004MPS 360V080 9999 // NCD 26/07 Q1026
  • 240930Z AUTO 05005MPS 9999 // NCD 24/08 Q1026

TAF TAF UKKM
Valid from the 24 at 00:00 until the 25 at 00:00 UTC


232303Z 2400/2424 01003G08MPS 9999 SCT030 TX26/2412Z TN12/2403Z
TEMPO 2400/2406 2000 BR SCT007
BECMG 2406/2408 02005G10MPS
No reported NOTAMs for that airfield.



MET'MAP, your aeronautical weather chart ! - Copyright ORBIFLY December 2007 - Disclaimer

ORBIFLY MET'MAP TEAM :

Programming & Development : Alexandra Zaïnal
Concept & Development : Baudouin d'Aumeries
Co-Development & Prog : Marc-Olivier Méhu
Technical & hardware support : Manuel Goepfert

Contact : metmap@orbifly.com




SOURCES & CREDITS :

   NOAA